sensor_id;sensor_type;location;lat;lon;timestamp;pressure;altitude;pressure_sealevel;temperature;humidity
56456;BME280;42354;53.218;6.564;2023-08-06T00:02:17;47229.44;;;-142.92;100.00
56456;BME280;42354;53.218;6.564;2023-08-06T00:04:43;47223.28;;;-142.92;100.00
56456;BME280;42354;53.218;6.564;2023-08-06T00:07:08;47235.59;;;-142.92;100.00
56456;BME280;42354;53.218;6.564;2023-08-06T00:09:33;47225.34;;;-142.92;100.00
56456;BME280;42354;53.218;6.564;2023-08-06T00:11:59;47223.28;;;-142.92;100.00
56456;BME280;42354;53.218;6.564;2023-08-06T00:14:24;47227.38;;;-142.92;100.00
56456;BME280;42354;53.218;6.564;2023-08-06T00:16:50;47233.53;;;-142.92;100.00
56456;BME280;42354;53.218;6.564;2023-08-06T00:19:15;47227.38;;;-142.92;100.00
56456;BME280;42354;53.218;6.564;2023-08-06T00:21:40;47225.34;;;-142.92;100.00
56456;BME280;42354;53.218;6.564;2023-08-06T00:24:06;47229.44;;;-142.92;100.00
56456;BME280;42354;53.218;6.564;2023-08-06T00:26:31;47225.34;;;-142.92;100.00
56456;BME280;42354;53.218;6.564;2023-08-06T00:28:56;47223.28;;;-142.92;100.00
56456;BME280;42354;53.218;6.564;2023-08-06T00:31:22;47221.22;;;-142.92;100.00
56456;BME280;42354;53.218;6.564;2023-08-06T00:33:47;47219.19;;;-142.92;100.00
56456;BME280;42354;53.218;6.564;2023-08-06T00:36:13;47223.28;;;-142.92;100.00
56456;BME280;42354;53.218;6.564;2023-08-06T00:38:38;47229.44;;;-142.92;100.00
56456;BME280;42354;53.218;6.564;2023-08-06T00:41:04;47219.19;;;-142.92;100.00
56456;BME280;42354;53.218;6.564;2023-08-06T00:43:29;47231.50;;;-142.92;100.00
56456;BME280;42354;53.218;6.564;2023-08-06T00:45:55;47229.44;;;-142.92;100.00
56456;BME280;42354;53.218;6.564;2023-08-06T00:48:21;47229.44;;;-142.92;100.00
56456;BME280;42354;53.218;6.564;2023-08-06T00:50:47;47229.44;;;-142.92;100.00
56456;BME280;42354;53.218;6.564;2023-08-06T00:53:12;47225.34;;;-142.92;100.00
56456;BME280;42354;53.218;6.564;2023-08-06T00:55:38;47221.22;;;-142.92;100.00
56456;BME280;42354;53.218;6.564;2023-08-06T00:58:04;47217.13;;;-142.92;100.00
56456;BME280;42354;53.218;6.564;2023-08-06T01:00:30;47227.38;;;-142.92;100.00
56456;BME280;42354;53.218;6.564;2023-08-06T01:02:56;47219.19;;;-142.92;100.00
56456;BME280;42354;53.218;6.564;2023-08-06T01:05:22;47217.13;;;-142.92;100.00
56456;BME280;42354;53.218;6.564;2023-08-06T01:11:12;47219.19;;;-142.92;100.00
56456;BME280;42354;53.218;6.564;2023-08-06T01:13:24;47221.22;;;-142.92;100.00
56456;BME280;42354;53.218;6.564;2023-08-06T01:15:55;47223.28;;;-142.92;100.00
56456;BME280;42354;53.218;6.564;2023-08-06T01:18:22;47215.06;;;-142.92;100.00
56456;BME280;42354;53.218;6.564;2023-08-06T01:20:48;47225.34;;;-142.92;100.00
56456;BME280;42354;53.218;6.564;2023-08-06T01:23:15;47219.19;;;-142.92;100.00
56456;BME280;42354;53.218;6.564;2023-08-06T01:31:06;47219.19;;;-142.92;100.00
56456;BME280;42354;53.218;6.564;2023-08-06T01:33:34;47217.13;;;-142.92;100.00
56456;BME280;42354;53.218;6.564;2023-08-06T01:36:02;47221.22;;;-142.92;100.00
56456;BME280;42354;53.218;6.564;2023-08-06T01:38:29;47217.13;;;-142.92;100.00
56456;BME280;42354;53.218;6.564;2023-08-06T01:40:54;47215.06;;;-142.92;100.00
56456;BME280;42354;53.218;6.564;2023-08-06T01:43:19;47221.22;;;-142.92;100.00
56456;BME280;42354;53.218;6.564;2023-08-06T01:45:45;47219.19;;;-142.92;100.00
56456;BME280;42354;53.218;6.564;2023-08-06T01:48:10;47210.97;;;-142.92;100.00
56456;BME280;42354;53.218;6.564;2023-08-06T01:50:36;47217.13;;;-142.92;100.00
56456;BME280;42354;53.218;6.564;2023-08-06T01:53:01;47210.97;;;-142.92;100.00
56456;BME280;42354;53.218;6.564;2023-08-06T01:55:26;47215.06;;;-142.92;100.00
56456;BME280;42354;53.218;6.564;2023-08-06T01:57:54;47208.91;;;-142.92;100.00
56456;BME280;42354;53.218;6.564;2023-08-06T02:00:19;47223.28;;;-142.92;100.00
56456;BME280;42354;53.218;6.564;2023-08-06T02:02:44;47210.97;;;-142.92;100.00
56456;BME280;42354;53.218;6.564;2023-08-06T02:05:10;47208.91;;;-142.92;100.00
56456;BME280;42354;53.218;6.564;2023-08-06T02:07:35;47208.91;;;-142.92;100.00
56456;BME280;42354;53.218;6.564;2023-08-06T02:10:00;47208.91;;;-142.92;100.00
56456;BME280;42354;53.218;6.564;2023-08-06T02:12:26;47217.13;;;-142.92;100.00
56456;BME280;42354;53.218;6.564;2023-08-06T02:14:51;47210.97;;;-142.92;100.00
56456;BME280;42354;53.218;6.564;2023-08-06T02:17:17;47210.97;;;-142.92;100.00
56456;BME280;42354;53.218;6.564;2023-08-06T02:19:42;47208.91;;;-142.92;100.00
56456;BME280;42354;53.218;6.564;2023-08-06T02:22:08;47206.88;;;-142.92;100.00
56456;BME280;42354;53.218;6.564;2023-08-06T02:24:33;47213.03;;;-142.92;100.00
56456;BME280;42354;53.218;6.564;2023-08-06T02:26:59;47204.81;;;-142.92;100.00
56456;BME280;42354;53.218;6.564;2023-08-06T02:29:24;47208.91;;;-142.92;100.00
56456;BME280;42354;53.218;6.564;2023-08-06T02:31:50;47208.91;;;-142.92;100.00
56456;BME280;42354;53.218;6.564;2023-08-06T02:34:15;47210.97;;;-142.92;100.00
56456;BME280;42354;53.218;6.564;2023-08-06T02:36:40;47210.97;;;-142.92;100.00
56456;BME280;42354;53.218;6.564;2023-08-06T02:39:06;47204.81;;;-142.92;100.00
56456;BME280;42354;53.218;6.564;2023-08-06T02:41:31;47204.81;;;-142.92;100.00
56456;BME280;42354;53.218;6.564;2023-08-06T02:43:57;47208.91;;;-142.92;100.00
56456;BME280;42354;53.218;6.564;2023-08-06T02:46:22;47206.88;;;-142.92;100.00
56456;BME280;42354;53.218;6.564;2023-08-06T02:48:48;47204.81;;;-142.92;100.00
56456;BME280;42354;53.218;6.564;2023-08-06T02:51:13;47206.88;;;-142.92;100.00
56456;BME280;42354;53.218;6.564;2023-08-06T02:53:38;47204.81;;;-142.92;100.00
56456;BME280;42354;53.218;6.564;2023-08-06T02:56:04;47206.88;;;-142.92;100.00
56456;BME280;42354;53.218;6.564;2023-08-06T02:58:29;47208.91;;;-142.92;100.00
56456;BME280;42354;53.218;6.564;2023-08-06T03:01:03;47204.81;;;-142.92;100.00
56456;BME280;42354;53.218;6.564;2023-08-06T03:03:30;47204.81;;;-142.92;100.00
56456;BME280;42354;53.218;6.564;2023-08-06T03:05:55;47204.81;;;-142.92;100.00
56456;BME280;42354;53.218;6.564;2023-08-06T03:08:21;47213.03;;;-142.92;100.00
56456;BME280;42354;53.218;6.564;2023-08-06T03:10:48;47202.75;;;-142.92;100.00
56456;BME280;42354;53.218;6.564;2023-08-06T03:13:14;47204.81;;;-142.92;100.00
56456;BME280;42354;53.218;6.564;2023-08-06T03:15:39;47210.97;;;-142.92;100.00
56456;BME280;42354;53.218;6.564;2023-08-06T03:18:04;47210.97;;;-142.92;100.00
56456;BME280;42354;53.218;6.564;2023-08-06T03:20:32;47213.03;;;-142.92;100.00
56456;BME280;42354;53.218;6.564;2023-08-06T03:22:57;47202.75;;;-142.92;100.00
56456;BME280;42354;53.218;6.564;2023-08-06T03:25:23;47210.97;;;-142.92;100.00
56456;BME280;42354;53.218;6.564;2023-08-06T03:27:48;47215.06;;;-142.92;100.00
56456;BME280;42354;53.218;6.564;2023-08-06T03:30:14;47210.97;;;-142.92;100.00
56456;BME280;42354;53.218;6.564;2023-08-06T03:32:39;47210.97;;;-142.92;100.00
56456;BME280;42354;53.218;6.564;2023-08-06T03:35:05;47204.81;;;-142.92;100.00
56456;BME280;42354;53.218;6.564;2023-08-06T03:37:30;47219.19;;;-142.92;100.00
56456;BME280;42354;53.218;6.564;2023-08-06T03:39:56;47219.19;;;-142.92;100.00
56456;BME280;42354;53.218;6.564;2023-08-06T03:42:21;47213.03;;;-142.92;100.00
56456;BME280;42354;53.218;6.564;2023-08-06T03:44:46;47219.19;;;-142.92;100.00
56456;BME280;42354;53.218;6.564;2023-08-06T03:47:13;47210.97;;;-142.92;100.00
56456;BME280;42354;53.218;6.564;2023-08-06T03:49:38;47217.13;;;-142.92;100.00
56456;BME280;42354;53.218;6.564;2023-08-06T03:52:04;47215.06;;;-142.92;100.00
56456;BME280;42354;53.218;6.564;2023-08-06T03:54:30;47213.03;;;-142.92;100.00
56456;BME280;42354;53.218;6.564;2023-08-06T03:56:55;47213.03;;;-142.92;100.00
56456;BME280;42354;53.218;6.564;2023-08-06T03:59:21;47215.06;;;-142.92;100.00
56456;BME280;42354;53.218;6.564;2023-08-06T04:01:46;47217.13;;;-142.92;100.00
56456;BME280;42354;53.218;6.564;2023-08-06T04:04:11;47223.28;;;-142.92;100.00
56456;BME280;42354;53.218;6.564;2023-08-06T04:06:37;47217.13;;;-142.92;100.00
56456;BME280;42354;53.218;6.564;2023-08-06T04:09:02;47217.13;;;-142.92;100.00
56456;BME280;42354;53.218;6.564;2023-08-06T04:11:28;47221.22;;;-142.92;100.00
56456;BME280;42354;53.218;6.564;2023-08-06T04:13:53;47223.28;;;-142.92;100.00
56456;BME280;42354;53.218;6.564;2023-08-06T04:16:20;47223.28;;;-142.92;100.00
56456;BME280;42354;53.218;6.564;2023-08-06T04:18:45;47223.28;;;-142.92;100.00
56456;BME280;42354;53.218;6.564;2023-08-06T04:21:11;47227.38;;;-142.92;100.00
56456;BME280;42354;53.218;6.564;2023-08-06T04:23:36;47225.34;;;-142.92;100.00
56456;BME280;42354;53.218;6.564;2023-08-06T04:26:02;47229.44;;;-142.92;100.00
56456;BME280;42354;53.218;6.564;2023-08-06T04:28:28;47233.53;;;-142.92;100.00
56456;BME280;42354;53.218;6.564;2023-08-06T04:30:53;47229.44;;;-142.92;100.00
56456;BME280;42354;53.218;6.564;2023-08-06T04:33:20;47225.34;;;-142.92;100.00
56456;BME280;42354;53.218;6.564;2023-08-06T04:35:45;47219.19;;;-142.92;100.00
56456;BME280;42354;53.218;6.564;2023-08-06T04:38:10;47229.44;;;-142.92;100.00
56456;BME280;42354;53.218;6.564;2023-08-06T04:40:36;47223.28;;;-142.92;100.00
56456;BME280;42354;53.218;6.564;2023-08-06T04:43:01;47225.34;;;-142.92;100.00
56456;BME280;42354;53.218;6.564;2023-08-06T04:45:27;47221.22;;;-142.92;100.00
56456;BME280;42354;53.218;6.564;2023-08-06T04:47:52;47221.22;;;-142.92;100.00
56456;BME280;42354;53.218;6.564;2023-08-06T04:50:19;47223.28;;;-142.92;100.00
56456;BME280;42354;53.218;6.564;2023-08-06T04:52:44;47233.53;;;-142.92;100.00
56456;BME280;42354;53.218;6.564;2023-08-06T04:55:10;47227.38;;;-142.92;100.00
56456;BME280;42354;53.218;6.564;2023-08-06T04:57:35;47233.53;;;-142.92;100.00
56456;BME280;42354;53.218;6.564;2023-08-06T05:00:00;47219.19;;;-142.92;100.00
56456;BME280;42354;53.218;6.564;2023-08-06T05:02:26;47231.50;;;-142.92;100.00
56456;BME280;42354;53.218;6.564;2023-08-06T05:04:51;47233.53;;;-142.92;100.00
56456;BME280;42354;53.218;6.564;2023-08-06T05:07:17;47221.22;;;-142.92;100.00
56456;BME280;42354;53.218;6.564;2023-08-06T05:09:42;47243.81;;;-142.92;100.00
56456;BME280;42354;53.218;6.564;2023-08-06T05:12:08;47229.44;;;-142.92;100.00
56456;BME280;42354;53.218;6.564;2023-08-06T05:14:33;47231.50;;;-142.92;100.00
56456;BME280;42354;53.218;6.564;2023-08-06T05:16:58;47235.59;;;-142.92;100.00
56456;BME280;42354;53.218;6.564;2023-08-06T05:19:24;47233.53;;;-142.92;100.00
56456;BME280;42354;53.218;6.564;2023-08-06T05:21:49;47229.44;;;-142.92;100.00
56456;BME280;42354;53.218;6.564;2023-08-06T05:24:14;47233.53;;;-142.92;100.00
56456;BME280;42354;53.218;6.564;2023-08-06T05:26:40;47229.44;;;-142.92;100.00
56456;BME280;42354;53.218;6.564;2023-08-06T05:29:05;47235.59;;;-142.92;100.00
56456;BME280;42354;53.218;6.564;2023-08-06T05:31:30;47233.53;;;-142.92;100.00
56456;BME280;42354;53.218;6.564;2023-08-06T05:33:56;47235.59;;;-142.92;100.00
56456;BME280;42354;53.218;6.564;2023-08-06T05:36:21;47233.53;;;-142.92;100.00
56456;BME280;42354;53.218;6.564;2023-08-06T05:38:47;47231.50;;;-142.92;100.00
56456;BME280;42354;53.218;6.564;2023-08-06T05:41:12;47225.34;;;-142.92;100.00
56456;BME280;42354;53.218;6.564;2023-08-06T05:43:38;47221.22;;;-142.92;100.00
56456;BME280;42354;53.218;6.564;2023-08-06T05:46:03;47229.44;;;-142.92;100.00
56456;BME280;42354;53.218;6.564;2023-08-06T05:48:29;47229.44;;;-142.92;100.00
56456;BME280;42354;53.218;6.564;2023-08-06T05:50:54;47237.66;;;-142.92;100.00
56456;BME280;42354;53.218;6.564;2023-08-06T05:53:20;47225.34;;;-142.92;100.00
56456;BME280;42354;53.218;6.564;2023-08-06T05:55:45;47213.03;;;-142.92;100.00
56456;BME280;42354;53.218;6.564;2023-08-06T05:58:11;47186.34;;;-142.92;100.00
56456;BME280;42354;53.218;6.564;2023-08-06T06:00:36;47171.97;;;-142.92;100.00
56456;BME280;42354;53.218;6.564;2023-08-06T06:03:01;47141.19;;;-142.92;100.00
56456;BME280;42354;53.218;6.564;2023-08-06T06:05:28;47081.69;;;-142.92;100.00
56456;BME280;42354;53.218;6.564;2023-08-06T06:07:53;46995.50;;;-142.92;100.00
56456;BME280;42354;53.218;6.564;2023-08-06T06:10:19;46977.03;;;-142.92;100.00
56456;BME280;42354;53.218;6.564;2023-08-06T06:12:44;46966.75;;;-142.92;100.00
56456;BME280;42354;53.218;6.564;2023-08-06T06:15:10;46798.50;;;-142.92;100.00
56456;BME280;42354;53.218;6.564;2023-08-06T06:17:35;46743.09;;;-142.92;100.00
56456;BME280;42354;53.218;6.564;2023-08-06T06:20:01;46995.50;;;-142.92;100.00
56456;BME280;42354;53.218;6.564;2023-08-06T06:22:28;47016.00;;;-142.92;100.00
56456;BME280;42354;53.218;6.564;2023-08-06T06:24:54;47007.81;;;-142.92;100.00
56456;BME280;42354;53.218;6.564;2023-08-06T06:27:19;47003.69;;;-142.92;100.00
56456;BME280;42354;53.218;6.564;2023-08-06T06:29:44;47011.91;;;-142.92;100.00
56456;BME280;42354;53.218;6.564;2023-08-06T06:32:10;46995.50;;;-142.92;100.00
56456;BME280;42354;53.218;6.564;2023-08-06T06:34:35;46997.53;;;-142.92;100.00
56456;BME280;42354;53.218;6.564;2023-08-06T06:37:01;47030.38;;;-142.92;100.00
56456;BME280;42354;53.218;6.564;2023-08-06T06:39:26;46997.53;;;-142.92;100.00
56456;BME280;42354;53.218;6.564;2023-08-06T06:41:51;47013.97;;;-142.92;100.00
56456;BME280;42354;53.218;6.564;2023-08-06T06:44:17;47013.97;;;-142.92;100.00
56456;BME280;42354;53.218;6.564;2023-08-06T06:46:42;47020.13;;;-142.92;100.00
56456;BME280;42354;53.218;6.564;2023-08-06T06:49:07;47003.69;;;-142.92;100.00
56456;BME280;42354;53.218;6.564;2023-08-06T06:51:33;46999.59;;;-142.92;100.00
56456;BME280;42354;53.218;6.564;2023-08-06T06:53:58;47007.81;;;-142.92;100.00
56456;BME280;42354;53.218;6.564;2023-08-06T06:56:24;46997.53;;;-142.92;100.00
56456;BME280;42354;53.218;6.564;2023-08-06T06:58:49;47011.91;;;-142.92;100.00
56456;BME280;42354;53.218;6.564;2023-08-06T07:01:15;47001.66;;;-142.92;100.00
56456;BME280;42354;53.218;6.564;2023-08-06T07:03:40;47016.00;;;-142.92;100.00
56456;BME280;42354;53.218;6.564;2023-08-06T07:06:06;47016.00;;;-142.92;100.00
56456;BME280;42354;53.218;6.564;2023-08-06T07:08:32;47022.16;;;-142.92;100.00
56456;BME280;42354;53.218;6.564;2023-08-06T07:11:05;47007.81;;;-142.92;100.00
56456;BME280;42354;53.218;6.564;2023-08-06T07:13:31;47011.91;;;-142.92;100.00
56456;BME280;42354;53.218;6.564;2023-08-06T07:15:57;47005.75;;;-142.92;100.00
56456;BME280;42354;53.218;6.564;2023-08-06T07:18:22;47007.81;;;-142.92;100.00
56456;BME280;42354;53.218;6.564;2023-08-06T07:20:52;47005.75;;;-142.92;100.00
56456;BME280;42354;53.218;6.564;2023-08-06T07:23:21;47003.69;;;-142.92;100.00
56456;BME280;42354;53.218;6.564;2023-08-06T07:25:47;46991.38;;;-142.92;100.00
56456;BME280;42354;53.218;6.564;2023-08-06T07:28:16;47005.75;;;-142.92;100.00
56456;BME280;42354;53.218;6.564;2023-08-06T07:30:42;46995.50;;;-142.92;100.00
56456;BME280;42354;53.218;6.564;2023-08-06T07:33:08;47001.66;;;-142.92;100.00
56456;BME280;42354;53.218;6.564;2023-08-06T07:35:34;46999.59;;;-142.92;100.00
56456;BME280;42354;53.218;6.564;2023-08-06T07:37:59;46985.22;;;-142.92;100.00
56456;BME280;42354;53.218;6.564;2023-08-06T07:40:25;47032.44;;;-142.92;100.00
56456;BME280;42354;53.218;6.564;2023-08-06T07:42:50;47005.75;;;-142.92;100.00
56456;BME280;42354;53.218;6.564;2023-08-06T07:45:16;46999.59;;;-142.92;100.00
56456;BME280;42354;53.218;6.564;2023-08-06T07:47:41;47005.75;;;-142.92;100.00
56456;BME280;42354;53.218;6.564;2023-08-06T07:50:08;47001.66;;;-142.92;100.00
56456;BME280;42354;53.218;6.564;2023-08-06T07:52:34;47005.75;;;-142.92;98.87
56456;BME280;42354;53.218;6.564;2023-08-06T07:54:59;47011.91;;;-142.92;96.61
56456;BME280;42354;53.218;6.564;2023-08-06T07:57:26;46997.53;;;-142.92;94.63
56456;BME280;42354;53.218;6.564;2023-08-06T07:59:52;47001.66;;;-142.92;93.89
56456;BME280;42354;53.218;6.564;2023-08-06T08:02:19;47005.75;;;-142.92;92.50
56456;BME280;42354;53.218;6.564;2023-08-06T08:04:44;47001.66;;;-142.92;92.96
56456;BME280;42354;53.218;6.564;2023-08-06T08:07:12;46995.50;;;-142.92;92.80
56456;BME280;42354;53.218;6.564;2023-08-06T08:09:37;46987.28;;;-142.92;91.90
56456;BME280;42354;53.218;6.564;2023-08-06T08:12:03;47001.66;;;-142.92;91.11
56456;BME280;42354;53.218;6.564;2023-08-06T08:14:28;47007.81;;;-142.92;90.63
56456;BME280;42354;53.218;6.564;2023-08-06T08:16:54;47003.69;;;-142.92;88.98
56456;BME280;42354;53.218;6.564;2023-08-06T08:19:19;47003.69;;;-142.92;86.06
56456;BME280;42354;53.218;6.564;2023-08-06T08:21:46;46987.28;;;-142.92;82.61
56456;BME280;42354;53.218;6.564;2023-08-06T08:24:11;47001.66;;;-142.92;81.45
56456;BME280;42354;53.218;6.564;2023-08-06T08:26:37;46981.13;;;-142.92;79.85
56456;BME280;42354;53.218;6.564;2023-08-06T08:29:02;47001.66;;;-142.92;78.39
56456;BME280;42354;53.218;6.564;2023-08-06T08:31:27;47009.84;;;-142.92;75.98
56456;BME280;42354;53.218;6.564;2023-08-06T08:33:53;46987.28;;;-142.92;75.06
56456;BME280;42354;53.218;6.564;2023-08-06T08:36:19;46987.28;;;-142.92;72.75
56456;BME280;42354;53.218;6.564;2023-08-06T08:38:44;46995.50;;;-142.92;70.31
56456;BME280;42354;53.218;6.564;2023-08-06T08:41:10;46993.44;;;-142.92;69.28
56456;BME280;42354;53.218;6.564;2023-08-06T08:43:36;46983.19;;;-142.92;69.89
56456;BME280;42354;53.218;6.564;2023-08-06T08:46:03;46995.50;;;-142.92;67.89
56456;BME280;42354;53.218;6.564;2023-08-06T08:48:31;47011.91;;;-142.92;67.32
56456;BME280;42354;53.218;6.564;2023-08-06T08:53:27;46995.50;;;-142.92;67.11
56456;BME280;42354;53.218;6.564;2023-08-06T08:55:54;46997.53;;;-142.92;61.19
56456;BME280;42354;53.218;6.564;2023-08-06T08:58:20;46999.59;;;-142.92;60.31
56456;BME280;42354;53.218;6.564;2023-08-06T09:00:46;46997.53;;;-142.92;60.28
56456;BME280;42354;53.218;6.564;2023-08-06T09:03:13;46997.53;;;-142.92;59.15
56456;BME280;42354;53.218;6.564;2023-08-06T09:05:45;47003.69;;;-142.92;59.20
56456;BME280;42354;53.218;6.564;2023-08-06T09:08:18;46995.50;;;-142.92;59.10
56456;BME280;42354;53.218;6.564;2023-08-06T09:10:44;46987.28;;;-142.92;60.06
56456;BME280;42354;53.218;6.564;2023-08-06T09:13:13;46997.53;;;-142.92;60.24
56456;BME280;42354;53.218;6.564;2023-08-06T09:15:39;46999.59;;;-142.92;59.46
56456;BME280;42354;53.218;6.564;2023-08-06T09:18:11;46989.34;;;-142.92;59.03
56456;BME280;42354;53.218;6.564;2023-08-06T09:20:38;46989.34;;;-142.92;59.11
56456;BME280;42354;53.218;6.564;2023-08-06T09:23:10;46991.38;;;-142.92;59.33
56456;BME280;42354;53.218;6.564;2023-08-06T09:25:39;46989.34;;;-142.92;58.86
56456;BME280;42354;53.218;6.564;2023-08-06T09:28:05;47001.66;;;-142.92;56.88
56456;BME280;42354;53.218;6.564;2023-08-06T09:30:33;47007.81;;;-142.92;56.14
56456;BME280;42354;53.218;6.564;2023-08-06T09:32:59;46991.38;;;-142.92;55.82
56456;BME280;42354;53.218;6.564;2023-08-06T09:35:24;46987.28;;;-142.92;54.67
56456;BME280;42354;53.218;6.564;2023-08-06T09:37:50;46993.44;;;-142.92;55.12
56456;BME280;42354;53.218;6.564;2023-08-06T09:40:29;46993.44;;;-142.92;51.51
56456;BME280;42354;53.218;6.564;2023-08-06T09:42:55;47003.69;;;-142.92;50.67
56456;BME280;42354;53.218;6.564;2023-08-06T09:45:22;46995.50;;;-142.92;50.18
56456;BME280;42354;53.218;6.564;2023-08-06T09:47:49;46995.50;;;-142.92;48.46
56456;BME280;42354;53.218;6.564;2023-08-06T09:50:18;46987.28;;;-142.92;48.40
56456;BME280;42354;53.218;6.564;2023-08-06T09:52:45;47001.66;;;-142.92;48.35
56456;BME280;42354;53.218;6.564;2023-08-06T09:55:12;46987.28;;;-142.92;48.44
56456;BME280;42354;53.218;6.564;2023-08-06T09:57:38;47001.66;;;-142.92;48.47
56456;BME280;42354;53.218;6.564;2023-08-06T10:00:04;46989.34;;;-142.92;47.77
56456;BME280;42354;53.218;6.564;2023-08-06T10:02:32;46993.44;;;-142.92;47.78
56456;BME280;42354;53.218;6.564;2023-08-06T10:04:58;46999.59;;;-142.92;48.40
56456;BME280;42354;53.218;6.564;2023-08-06T10:07:24;46999.59;;;-142.92;47.68
56456;BME280;42354;53.218;6.564;2023-08-06T10:09:50;46987.28;;;-142.92;47.03
56456;BME280;42354;53.218;6.564;2023-08-06T10:12:17;46983.19;;;-142.92;46.26
56456;BME280;42354;53.218;6.564;2023-08-06T10:14:45;47011.91;;;-142.92;45.70
56456;BME280;42354;53.218;6.564;2023-08-06T10:17:12;46987.28;;;-142.92;47.40
56456;BME280;42354;53.218;6.564;2023-08-06T10:19:38;46995.50;;;-142.92;47.44
56456;BME280;42354;53.218;6.564;2023-08-06T10:22:17;46999.59;;;-142.92;45.98
56456;BME280;42354;53.218;6.564;2023-08-06T10:24:53;46983.19;;;-142.92;44.79
56456;BME280;42354;53.218;6.564;2023-08-06T10:27:32;46987.28;;;-142.92;44.38
56456;BME280;42354;53.218;6.564;2023-08-06T10:30:28;46987.28;;;-142.92;43.46
56456;BME280;42354;53.218;6.564;2023-08-06T10:33:03;46987.28;;;-142.92;41.99
56456;BME280;42354;53.218;6.564;2023-08-06T10:35:43;46985.22;;;-142.92;41.78
56456;BME280;42354;53.218;6.564;2023-08-06T10:38:15;46985.22;;;-142.92;41.84
56456;BME280;42354;53.218;6.564;2023-08-06T10:41:03;46985.22;;;-142.92;42.39
56456;BME280;42354;53.218;6.564;2023-08-06T10:43:35;46993.44;;;-142.92;43.14
56456;BME280;42354;53.218;6.564;2023-08-06T10:46:09;46995.50;;;-142.92;43.05
56456;BME280;42354;53.218;6.564;2023-08-06T10:48:39;46997.53;;;-142.92;42.92
56456;BME280;42354;53.218;6.564;2023-08-06T10:51:09;46989.34;;;-142.92;42.88
56456;BME280;42354;53.218;6.564;2023-08-06T10:53:36;46983.19;;;-142.92;43.33
56456;BME280;42354;53.218;6.564;2023-08-06T10:56:02;46987.28;;;-142.92;43.27
56456;BME280;42354;53.218;6.564;2023-08-06T10:58:32;46979.06;;;-142.92;43.11
56456;BME280;42354;53.218;6.564;2023-08-06T11:00:58;46991.38;;;-142.92;42.79
56456;BME280;42354;53.218;6.564;2023-08-06T11:03:24;46987.28;;;-142.92;41.47
56456;BME280;42354;53.218;6.564;2023-08-06T11:05:50;47001.66;;;-142.92;40.04
56456;BME280;42354;53.218;6.564;2023-08-06T11:08:29;46987.28;;;-142.92;38.90
56456;BME280;42354;53.218;6.564;2023-08-06T11:11:08;46987.28;;;-142.92;38.31
56456;BME280;42354;53.218;6.564;2023-08-06T11:13:34;46991.38;;;-142.92;39.47
56456;BME280;42354;53.218;6.564;2023-08-06T11:15:59;46993.44;;;-142.92;40.14
56456;BME280;42354;53.218;6.564;2023-08-06T11:18:25;46987.28;;;-142.92;39.80
56456;BME280;42354;53.218;6.564;2023-08-06T11:20:50;46993.44;;;-142.92;39.80
56456;BME280;42354;53.218;6.564;2023-08-06T11:23:16;46985.22;;;-142.92;40.42
56456;BME280;42354;53.218;6.564;2023-08-06T11:25:45;46987.28;;;-142.92;41.20
56456;BME280;42354;53.218;6.564;2023-08-06T11:28:11;46989.34;;;-142.92;42.64
56456;BME280;42354;53.218;6.564;2023-08-06T11:30:38;46991.38;;;-142.92;43.69
56456;BME280;42354;53.218;6.564;2023-08-06T11:33:03;46985.22;;;-142.92;42.94
56456;BME280;42354;53.218;6.564;2023-08-06T11:35:28;46979.06;;;-142.92;43.29
56456;BME280;42354;53.218;6.564;2023-08-06T11:37:54;46979.06;;;-142.92;43.27
56456;BME280;42354;53.218;6.564;2023-08-06T11:40:20;46987.28;;;-142.92;42.66
56456;BME280;42354;53.218;6.564;2023-08-06T11:42:46;46983.19;;;-142.92;42.22
56456;BME280;42354;53.218;6.564;2023-08-06T11:45:12;46991.38;;;-142.92;41.34
56456;BME280;42354;53.218;6.564;2023-08-06T11:47:39;46999.59;;;-142.92;40.87
56456;BME280;42354;53.218;6.564;2023-08-06T11:50:07;46991.38;;;-142.92;40.31
56456;BME280;42354;53.218;6.564;2023-08-06T11:52:33;46987.28;;;-142.92;39.97
56456;BME280;42354;53.218;6.564;2023-08-06T11:55:06;46991.38;;;-142.92;39.74
56456;BME280;42354;53.218;6.564;2023-08-06T11:57:34;46989.34;;;-142.92;40.10
56456;BME280;42354;53.218;6.564;2023-08-06T12:00:10;46999.59;;;-142.92;40.70
56456;BME280;42354;53.218;6.564;2023-08-06T12:02:39;46981.13;;;-142.92;40.65
56456;BME280;42354;53.218;6.564;2023-08-06T12:07:37;47001.66;;;-142.92;42.14
56456;BME280;42354;53.218;6.564;2023-08-06T12:10:04;46987.28;;;-142.92;42.81
56456;BME280;42354;53.218;6.564;2023-08-06T12:12:30;46993.44;;;-142.92;43.22
56456;BME280;42354;53.218;6.564;2023-08-06T12:14:56;46970.88;;;-142.92;42.89
56456;BME280;42354;53.218;6.564;2023-08-06T12:17:22;46989.34;;;-142.92;42.50
56456;BME280;42354;53.218;6.564;2023-08-06T12:19:48;46983.19;;;-142.92;43.05
56456;BME280;42354;53.218;6.564;2023-08-06T12:22:14;46974.97;;;-142.92;42.93
56456;BME280;42354;53.218;6.564;2023-08-06T12:24:43;46977.03;;;-142.92;44.06
56456;BME280;42354;53.218;6.564;2023-08-06T12:27:09;46974.97;;;-142.92;44.38
56456;BME280;42354;53.218;6.564;2023-08-06T12:29:35;46983.19;;;-142.92;45.64
56456;BME280;42354;53.218;6.564;2023-08-06T12:32:01;46999.59;;;-142.92;46.82
56456;BME280;42354;53.218;6.564;2023-08-06T12:34:27;46991.38;;;-142.92;46.90
56456;BME280;42354;53.218;6.564;2023-08-06T12:36:52;46999.59;;;-142.92;47.35
56456;BME280;42354;53.218;6.564;2023-08-06T12:39:18;46981.13;;;-142.92;48.03
56456;BME280;42354;53.218;6.564;2023-08-06T12:41:43;46999.59;;;-142.92;49.64
56456;BME280;42354;53.218;6.564;2023-08-06T12:44:11;46993.44;;;-142.92;48.26